Time;durP1;ratioP1;P1;durP2;ratioP2;P2;SDS_P1;SDS_P2;PMS_P1;PMS_P2;Temp;Humidity;BMP_temperature;BMP_pressure;BME280_temperature;BME280_humidity;BME280_pressure;Samples;Min_cycle;Max_cycle;Signal;HPM_P1;HPM_P2
2022/04/19 00:01:38;;;;;;;3.50;3.20;;;12.30;55.40;;;;;;5078975;28;20739;-83
2022/04/19 00:04:04;;;;;;;3.97;3.53;;;12.20;56.00;;;;;;5091991;28;20189;-83
2022/04/19 00:06:30;;;;;;;3.90;3.50;;;12.10;56.80;;;;;;5092504;28;20186;-82
2022/04/19 00:08:55;;;;;;;3.30;3.00;;;12.10;56.60;;;;;;5093833;28;20208;-83
2022/04/19 00:11:21;;;;;;;3.73;3.23;;;12.10;56.30;;;;;;5096022;28;20209;-83
2022/04/19 00:13:47;;;;;;;3.93;3.60;;;12.20;56.10;;;;;;5099227;28;20745;-83
2022/04/19 00:16:14;;;;;;;3.40;2.77;;;12.10;56.20;;;;;;5092050;28;20222;-83
2022/04/19 00:18:40;;;;;;;3.50;3.20;;;12.20;56.10;;;;;;5081293;28;20190;-83
2022/04/19 00:21:06;;;;;;;6.40;3.97;;;12.10;56.30;;;;;;5089111;28;20643;-83
2022/04/19 00:23:31;;;;;;;3.90;3.60;;;12.10;56.90;;;;;;5088903;28;20201;-84
2022/04/19 00:25:57;;;;;;;6.03;3.80;;;11.90;57.50;;;;;;5086263;28;20576;-83
2022/04/19 00:28:23;;;;;;;3.57;3.27;;;11.90;57.70;;;;;;5088019;28;20181;-83
2022/04/19 00:30:49;;;;;;;4.83;3.37;;;11.80;57.80;;;;;;5086311;28;20270;-83
2022/04/19 00:33:15;;;;;;;3.80;3.40;;;11.70;57.90;;;;;;5091398;28;20195;-85
2022/04/19 00:35:42;;;;;;;3.87;3.40;;;11.70;58.30;;;;;;5096896;28;20603;-83
2022/04/19 00:38:08;;;;;;;6.70;3.33;;;11.70;57.90;;;;;;5089940;28;20210;-84
2022/04/19 00:40:34;;;;;;;5.67;3.53;;;11.50;59.00;;;;;;5088408;28;20290;-83
2022/04/19 00:43:01;;;;;;;10.00;4.03;;;11.40;59.30;;;;;;5087624;28;20199;-83
2022/04/19 00:45:26;;;;;;;4.63;3.50;;;11.40;59.40;;;;;;5106234;28;20247;-83
2022/04/19 00:47:53;;;;;;;3.63;3.33;;;11.50;59.00;;;;;;5090907;28;20179;-83
2022/04/19 00:50:20;;;;;;;5.63;3.90;;;11.50;59.20;;;;;;5088097;28;20288;-82
2022/04/19 00:52:46;;;;;;;5.43;3.60;;;11.60;58.40;;;;;;5086416;28;20362;-83
2022/04/19 00:55:12;;;;;;;4.07;3.47;;;11.50;57.70;;;;;;5086881;28;20189;-83
2022/04/19 00:57:39;;;;;;;3.87;3.30;;;11.50;58.30;;;;;;5091009;28;20195;-84
2022/04/19 01:00:08;;;;;;;5.07;3.97;;;11.50;58.60;;;;;;5087865;28;20685;-83
2022/04/19 01:02:36;;;;;;;5.50;3.77;;;11.30;59.00;;;;;;5096570;28;20194;-82
2022/04/19 01:05:02;;;;;;;4.17;3.87;;;11.20;59.10;;;;;;5102068;28;20213;-82
2022/04/19 01:07:28;;;;;;;4.03;3.70;;;11.20;59.70;;;;;;5100037;28;20179;-82
2022/04/19 01:09:54;;;;;;;5.40;4.00;;;11.10;60.10;;;;;;5103640;28;20201;-82
2022/04/19 01:15:07;;;;;;;3.80;3.40;;;10.90;60.50;;;;;;5102139;28;20221;-82
2022/04/19 01:17:39;;;;;;;5.80;3.60;;;10.70;62.00;;;;;;5100836;28;20191;-82
2022/04/19 01:20:06;;;;;;;4.07;3.70;;;10.70;62.50;;;;;;5099429;28;20209;-81
2022/04/19 01:22:39;;;;;;;3.70;3.27;;;10.80;61.80;;;;;;5111939;28;20218;-81
2022/04/19 01:25:07;;;;;;;3.77;3.40;;;10.90;61.90;;;;;;5095382;28;20203;-82
2022/04/19 01:27:34;;;;;;;3.57;3.23;;;10.90;61.40;;;;;;5095469;28;20184;-82
2022/04/19 01:30:03;;;;;;;3.60;3.30;;;11.10;60.80;;;;;;5085284;28;20211;-82
2022/04/19 01:32:29;;;;;;;3.60;3.30;;;11.20;60.10;;;;;;5089419;28;20219;-82
2022/04/19 01:35:15;;;;;;;3.60;3.30;;;11.20;60.00;;;;;;5089054;28;20626;-81
2022/04/19 01:37:51;;;;;;;4.17;3.57;;;11.30;59.50;;;;;;5088820;28;20646;-81
2022/04/19 01:40:18;;;;;;;3.87;3.50;;;11.30;59.40;;;;;;5092415;28;20214;-81
2022/04/19 01:42:52;;;;;;;3.60;3.30;;;11.40;58.90;;;;;;5090130;28;20194;-81
2022/04/19 01:45:19;;;;;;;4.43;4.03;;;11.40;59.00;;;;;;5077408;28;20209;-81
2022/04/19 01:47:45;;;;;;;3.80;3.50;;;11.40;59.10;;;;;;5080200;28;20185;-82
2022/04/19 01:50:13;;;;;;;4.43;3.47;;;11.40;59.10;;;;;;5081251;28;20188;-82
2022/04/19 01:52:41;;;;;;;3.70;3.40;;;11.30;59.60;;;;;;5089316;28;20195;-82
2022/04/19 01:55:09;;;;;;;4.03;3.60;;;11.30;59.40;;;;;;5082500;28;20213;-82
2022/04/19 01:57:35;;;;;;;3.70;3.27;;;11.20;59.00;;;;;;5082103;28;20184;-82
2022/04/19 02:00:03;;;;;;;3.67;3.37;;;11.20;59.40;;;;;;5086124;28;20233;-82
2022/04/19 02:02:29;;;;;;;4.43;3.50;;;11.00;59.70;;;;;;5074289;28;20217;-82
2022/04/19 02:04:55;;;;;;;4.17;3.87;;;11.00;59.70;;;;;;5086301;28;20207;-82
2022/04/19 02:07:20;;;;;;;3.87;3.53;;;10.80;61.40;;;;;;5084155;28;20187;-82
2022/04/19 02:09:47;;;;;;;3.80;3.40;;;10.80;61.30;;;;;;5086637;28;20191;-82
2022/04/19 02:12:13;;;;;;;4.00;3.70;;;10.90;60.90;;;;;;5070053;28;20214;-82
2022/04/19 02:14:41;;;;;;;4.03;3.73;;;10.90;60.60;;;;;;5085373;28;20199;-82
2022/04/19 02:17:11;;;;;;;4.60;4.13;;;10.80;60.80;;;;;;5084326;28;20196;-82
2022/04/19 02:19:37;;;;;;;4.27;3.87;;;10.90;60.60;;;;;;5082485;28;20605;-82
2022/04/19 02:22:06;;;;;;;3.70;3.27;;;10.80;60.70;;;;;;5066492;28;20643;-81
2022/04/19 02:24:34;;;;;;;4.13;3.73;;;10.60;60.30;;;;;;5083321;28;20250;-81
2022/04/19 02:27:00;;;;;;;4.10;3.77;;;10.50;61.30;;;;;;5089480;28;20199;-82
2022/04/19 02:29:26;;;;;;;4.40;4.00;;;10.50;61.70;;;;;;5085167;28;20608;-82
2022/04/19 02:31:52;;;;;;;5.43;3.60;;;10.50;61.80;;;;;;5089226;28;20777;-82
2022/04/19 02:34:18;;;;;;;4.13;3.43;;;10.50;61.90;;;;;;5084547;28;20212;-81
2022/04/19 02:36:44;;;;;;;3.87;3.57;;;10.40;62.40;;;;;;5092306;28;20201;-81
2022/04/19 02:39:11;;;;;;;3.60;3.37;;;10.40;62.30;;;;;;5088590;28;20179;-82
2022/04/19 02:41:37;;;;;;;4.90;3.87;;;10.30;62.70;;;;;;5086153;28;20208;-81
2022/04/19 02:44:03;;;;;;;3.80;3.50;;;10.30;63.80;;;;;;5085976;28;20534;-82
2022/04/19 02:46:29;;;;;;;4.03;3.60;;;10.30;63.60;;;;;;5073943;28;20831;-82
2022/04/19 02:48:57;;;;;;;5.03;3.43;;;10.40;62.90;;;;;;5081124;28;20219;-82
2022/04/19 02:51:24;;;;;;;4.60;4.20;;;10.50;62.20;;;;;;5085668;28;20234;-82
2022/04/19 02:53:49;;;;;;;4.13;3.73;;;10.60;61.70;;;;;;5091791;28;20202;-82
2022/04/19 02:56:16;;;;;;;4.60;3.83;;;10.60;61.20;;;;;;5068877;28;20198;-82
2022/04/19 02:58:45;;;;;;;4.13;3.73;;;10.60;61.40;;;;;;5087545;28;20237;-82
2022/04/19 03:01:11;;;;;;;3.83;3.53;;;10.50;62.10;;;;;;5089105;28;20211;-82
2022/04/19 03:03:37;;;;;;;3.90;3.57;;;10.50;62.00;;;;;;5090374;28;20187;-82
2022/04/19 03:06:03;;;;;;;4.27;3.87;;;10.40;61.70;;;;;;5087120;28;20260;-82
2022/04/19 03:08:32;;;;;;;3.93;3.47;;;10.20;62.40;;;;;;5091076;28;20186;-82
2022/04/19 03:10:58;;;;;;;4.50;3.60;;;10.20;61.70;;;;;;5084369;28;20222;-82
2022/04/19 03:13:24;;;;;;;4.27;3.67;;;10.20;61.50;;;;;;5088963;28;20183;-82
2022/04/19 03:15:50;;;;;;;3.83;3.53;;;10.20;61.80;;;;;;5084272;28;20201;-82
2022/04/19 03:18:15;;;;;;;4.03;3.60;;;10.10;61.10;;;;;;5088294;28;20566;-82
2022/04/19 03:20:45;;;;;;;4.43;3.47;;;10.10;61.50;;;;;;5084566;28;20227;-82
2022/04/19 03:28:40;;;;;;;4.60;4.13;;;10.00;61.80;;;;;;5071264;28;20226;-82
2022/04/19 03:31:07;;;;;;;4.80;4.07;;;10.00;61.60;;;;;;5086675;28;20217;-82
2022/04/19 03:33:33;;;;;;;4.30;3.90;;;9.90;61.90;;;;;;5078315;28;20637;-82
2022/04/19 03:35:59;;;;;;;3.83;3.23;;;9.80;63.10;;;;;;5089327;28;20192;-81
2022/04/19 03:38:25;;;;;;;4.40;3.93;;;9.60;64.10;;;;;;5084423;28;20894;-82
2022/04/19 03:40:50;;;;;;;4.53;3.97;;;9.60;63.90;;;;;;5084695;28;20246;-82
2022/04/19 03:43:16;;;;;;;3.60;3.30;;;9.60;63.60;;;;;;5085051;28;20557;-82
2022/04/19 03:45:41;;;;;;;5.23;3.53;;;9.60;63.20;;;;;;5089029;28;20257;-82
2022/04/19 03:48:07;;;;;;;4.50;3.80;;;9.70;62.90;;;;;;5080373;28;20263;-82
2022/04/19 03:50:33;;;;;;;5.70;4.10;;;9.70;62.50;;;;;;5090042;28;20198;-82
2022/04/19 03:52:59;;;;;;;4.10;3.70;;;9.70;62.40;;;;;;5083767;28;20176;-82
2022/04/19 03:55:25;;;;;;;3.97;3.57;;;9.60;63.00;;;;;;5088161;28;20205;-82
2022/04/19 03:57:51;;;;;;;4.57;3.77;;;9.50;63.20;;;;;;5085066;28;20187;-82
2022/04/19 04:00:17;;;;;;;4.30;3.77;;;9.40;62.70;;;;;;5092595;28;20191;-82
2022/04/19 04:02:43;;;;;;;5.07;3.70;;;9.40;63.90;;;;;;5087415;28;20195;-82
2022/04/19 04:05:09;;;;;;;4.33;3.93;;;9.50;63.70;;;;;;5086472;28;20347;-82
2022/04/19 04:07:38;;;;;;;4.97;4.07;;;9.50;63.30;;;;;;5079958;28;20657;-82
2022/04/19 04:10:04;;;;;;;3.90;3.60;;;9.50;62.90;;;;;;5098211;28;20198;-82
2022/04/19 04:12:30;;;;;;;4.40;3.70;;;9.20;63.60;;;;;;5112367;28;20206;-82
2022/04/19 04:14:55;;;;;;;6.10;4.07;;;8.90;64.90;;;;;;5108205;28;20631;-81
2022/04/19 04:17:21;;;;;;;5.80;5.07;;;8.80;64.70;;;;;;5096594;28;20195;-81
2022/04/19 04:19:47;;;;;;;4.47;3.90;;;8.90;65.50;;;;;;5095836;28;20199;-82
2022/04/19 04:22:12;;;;;;;8.03;7.33;;;8.90;65.60;;;;;;5094285;28;20230;-81
2022/04/19 04:24:38;;;;;;;4.70;4.30;;;9.00;65.90;;;;;;5090308;28;20211;-81
2022/04/19 04:27:04;;;;;;;5.40;4.03;;;9.10;65.00;;;;;;5100841;28;20190;-81
2022/04/19 04:29:30;;;;;;;5.43;4.00;;;9.00;65.30;;;;;;5105914;28;20243;-81
2022/04/19 04:31:55;;;;;;;4.37;3.80;;;9.00;65.30;;;;;;5096841;28;20229;-81
2022/04/19 04:34:21;;;;;;;4.00;3.67;;;9.00;65.20;;;;;;5085781;28;20252;-82
2022/04/19 04:36:47;;;;;;;7.10;4.00;;;9.10;64.40;;;;;;5088625;28;20183;-81
2022/04/19 04:39:14;;;;;;;4.20;3.77;;;9.10;64.70;;;;;;5092991;28;20233;-82
2022/04/19 04:41:40;;;;;;;4.70;4.00;;;9.20;63.70;;;;;;5092311;28;20211;-81
2022/04/19 04:44:06;;;;;;;4.80;4.40;;;9.20;63.50;;;;;;5092630;28;20196;-81
2022/04/19 04:52:00;;;;;;;4.63;4.20;;;9.20;63.40;;;;;;5086799;28;20219;-82
2022/04/19 04:54:26;;;;;;;4.30;3.97;;;9.20;63.60;;;;;;5079538;28;20191;-83
2022/04/19 04:56:52;;;;;;;4.70;4.13;;;9.20;63.60;;;;;;5093149;28;20277;-81
2022/04/19 04:59:18;;;;;;;4.93;4.30;;;9.30;63.60;;;;;;5093688;28;20185;-82
2022/04/19 05:01:44;;;;;;;5.03;4.57;;;9.20;63.20;;;;;;5096770;28;20266;-82
2022/04/19 05:04:09;;;;;;;4.40;4.00;;;9.30;63.10;;;;;;5099759;28;20210;-81
2022/04/19 05:06:35;;;;;;;8.10;4.20;;;9.40;63.30;;;;;;5091838;28;20237;-81
2022/04/19 05:09:01;;;;;;;6.57;3.63;;;9.50;62.60;;;;;;5090511;28;20187;-82
2022/04/19 05:11:28;;;;;;;4.33;3.90;;;9.40;62.60;;;;;;5077764;28;20223;-82
2022/04/19 05:13:54;;;;;;;4.20;3.80;;;9.30;62.70;;;;;;5108189;28;20179;-81
2022/04/19 05:16:20;;;;;;;4.30;3.90;;;9.30;63.10;;;;;;5083959;28;20194;-81
2022/04/19 05:18:46;;;;;;;4.83;4.30;;;9.10;62.90;;;;;;5085679;28;20218;-81
2022/04/19 05:21:12;;;;;;;5.53;3.90;;;9.00;64.30;;;;;;5091939;28;20244;-82
2022/04/19 05:23:37;;;;;;;4.63;4.23;;;8.90;65.20;;;;;;5092094;28;20552;-81
2022/04/19 05:26:03;;;;;;;4.37;3.97;;;9.00;65.00;;;;;;5087193;28;20205;-81
2022/04/19 05:28:29;;;;;;;11.37;5.00;;;9.00;64.70;;;;;;5080295;28;20203;-82
2022/04/19 05:30:55;;;;;;;5.27;4.77;;;9.00;64.70;;;;;;5092857;28;20211;-82
2022/04/19 05:33:21;;;;;;;7.63;4.93;;;9.10;64.40;;;;;;5092888;28;20184;-82
2022/04/19 05:35:47;;;;;;;5.53;4.33;;;9.10;64.30;;;;;;5077869;28;20203;-82
2022/04/19 05:38:13;;;;;;;4.67;4.20;;;9.10;64.60;;;;;;5095676;28;20191;-82
2022/04/19 05:40:39;;;;;;;4.57;3.87;;;9.10;64.60;;;;;;5091822;28;20210;-81
2022/04/19 05:43:05;;;;;;;7.27;4.40;;;9.20;64.60;;;;;;5070361;28;20242;-82
2022/04/19 05:45:31;;;;;;;6.60;4.70;;;9.20;64.30;;;;;;5093325;28;20248;-81
2022/04/19 05:47:57;;;;;;;7.77;4.63;;;9.20;64.30;;;;;;5092217;28;20191;-81
2022/04/19 05:50:23;;;;;;;5.23;4.80;;;9.30;64.30;;;;;;5089332;28;20183;-82
2022/04/19 05:52:48;;;;;;;7.47;4.77;;;9.40;64.60;;;;;;5057568;28;20179;-82
2022/04/19 05:55:14;;;;;;;7.17;4.20;;;9.50;64.60;;;;;;5089626;28;20230;-82
2022/04/19 05:57:40;;;;;;;5.47;4.63;;;9.50;64.40;;;;;;5088711;28;20199;-82
2022/04/19 06:00:06;;;;;;;15.13;5.10;;;9.50;64.80;;;;;;5072731;28;20205;-83
2022/04/19 06:05:17;;;;;;;7.27;4.67;;;9.60;65.30;;;;;;5090620;28;20642;-82
2022/04/19 06:07:47;;;;;;;10.13;4.67;;;9.70;65.60;;;;;;5091540;28;20656;-82
2022/04/19 06:10:14;;;;;;;8.47;4.53;;;9.70;66.30;;;;;;5071559;28;20183;-83
2022/04/19 06:12:41;;;;;;;6.47;4.57;;;9.70;65.30;;;;;;5091533;28;20295;-82
2022/04/19 06:15:07;;;;;;;4.77;4.37;;;9.80;65.90;;;;;;5089240;28;20175;-82
2022/04/19 06:17:35;;;;;;;7.53;5.00;;;9.80;65.80;;;;;;5088327;28;20594;-82
2022/04/19 06:20:01;;;;;;;5.67;4.60;;;9.90;65.30;;;;;;5089368;28;20184;-83
2022/04/19 06:22:27;;;;;;;6.77;5.43;;;10.00;64.80;;;;;;5073735;28;20230;-83
2022/04/19 06:24:55;;;;;;;5.67;4.90;;;10.00;65.00;;;;;;5092090;28;20208;-82
2022/04/19 06:27:21;;;;;;;5.87;4.67;;;10.20;64.80;;;;;;5091498;28;20190;-82
2022/04/19 06:29:47;;;;;;;8.07;5.30;;;10.30;64.10;;;;;;5055464;28;20187;-82
2022/04/19 06:32:13;;;;;;;8.50;5.30;;;10.30;63.00;;;;;;5098871;28;20215;-83
2022/04/19 06:34:40;;;;;;;4.87;4.37;;;10.20;62.80;;;;;;5094715;28;20190;-83
2022/04/19 06:37:06;;;;;;;5.07;4.57;;;10.30;63.10;;;;;;5081134;28;20201;-81
2022/04/19 06:39:31;;;;;;;5.60;4.77;;;10.30;63.10;;;;;;5094223;28;20282;-82
2022/04/19 06:41:57;;;;;;;8.23;5.27;;;10.40;61.80;;;;;;5098400;28;20207;-81
2022/04/19 06:44:22;;;;;;;5.73;4.80;;;10.30;63.10;;;;;;5094336;28;20202;-84
2022/04/19 06:46:49;;;;;;;8.83;5.00;;;10.30;63.40;;;;;;5093111;28;20251;-82
2022/04/19 06:49:16;;;;;;;6.40;4.97;;;10.30;63.10;;;;;;5089018;28;20191;-83
2022/04/19 06:51:42;;;;;;;5.83;5.00;;;10.40;62.90;;;;;;5080861;28;20198;-83
2022/04/19 06:54:09;;;;;;;6.00;4.80;;;10.40;61.40;;;;;;5086461;28;20183;-83
2022/04/19 06:56:35;;;;;;;5.80;4.40;;;10.40;61.10;;;;;;5080260;28;20553;-83
2022/04/19 06:59:00;;;;;;;5.20;4.60;;;10.40;61.60;;;;;;5093893;28;20176;-83
2022/04/19 07:01:27;;;;;;;5.73;5.13;;;10.50;61.50;;;;;;5107549;28;20214;-81
2022/04/19 07:03:53;;;;;;;11.63;5.30;;;10.60;60.30;;;;;;5112871;28;20216;-84
2022/04/19 07:06:19;;;;;;;7.27;5.20;;;10.50;61.10;;;;;;5099007;28;20215;-83
2022/04/19 07:08:45;;;;;;;6.60;4.47;;;10.50;60.10;;;;;;5076224;28;20192;-83
2022/04/19 07:11:12;;;;;;;6.00;5.40;;;10.50;61.30;;;;;;5094096;28;20225;-83
2022/04/19 07:13:39;;;;;;;6.37;5.70;;;10.60;60.90;;;;;;5081328;28;20184;-83
2022/04/19 07:16:05;;;;;;;5.13;4.63;;;10.80;61.50;;;;;;5097269;28;20179;-83
2022/04/19 07:18:31;;;;;;;5.73;5.13;;;11.00;61.10;;;;;;5084682;28;20187;-83
2022/04/19 07:26:38;;;;;;;6.37;5.07;;;10.80;65.40;;;;;;5080579;28;20249;-83
2022/04/19 07:29:15;;;;;;;6.13;5.17;;;10.70;65.80;;;;;;5082600;28;20187;-83
2022/04/19 07:31:43;;;;;;;5.40;4.93;;;10.80;66.30;;;;;;5087781;28;20726;-83
2022/04/19 07:34:09;;;;;;;7.17;5.57;;;10.80;66.90;;;;;;5096729;28;20176;-83
2022/04/19 07:36:39;;;;;;;5.50;5.00;;;10.90;68.20;;;;;;5096386;28;20187;-82
2022/04/19 07:39:06;;;;;;;6.07;5.40;;;10.90;66.40;;;;;;5093322;28;20206;-83
2022/04/19 07:41:32;;;;;;;5.80;5.03;;;11.10;64.10;;;;;;5094519;28;20690;-82
2022/04/19 07:43:58;;;;;;;9.10;4.93;;;11.30;64.40;;;;;;5093448;28;20195;-82
2022/04/19 07:46:24;;;;;;;5.30;4.80;;;11.40;64.30;;;;;;5098468;28;20723;-82
2022/04/19 07:48:51;;;;;;;8.07;5.30;;;11.40;63.80;;;;;;5097358;28;20214;-84
2022/04/19 07:51:18;;;;;;;5.87;5.27;;;11.40;63.10;;;;;;5090839;28;20289;-83
2022/04/19 07:53:44;;;;;;;8.00;5.60;;;11.50;64.50;;;;;;5095279;28;20291;-82
2022/04/19 07:56:10;;;;;;;7.57;5.30;;;11.50;64.10;;;;;;5085811;28;20219;-82
2022/04/19 07:58:36;;;;;;;80.73;13.43;;;11.60;63.20;;;;;;5091317;28;20262;-81
2022/04/19 08:01:01;;;;;;;44.13;9.97;;;11.80;62.20;;;;;;5094538;28;20236;-82
2022/04/19 08:03:27;;;;;;;9.50;5.20;;;12.10;61.20;;;;;;5086362;28;20200;-79
2022/04/19 08:05:53;;;;;;;7.33;5.40;;;12.20;60.00;;;;;;5091037;28;20275;-80
2022/04/19 08:08:21;;;;;;;9.93;5.20;;;12.50;57.80;;;;;;5095412;28;20193;-80
2022/04/19 08:10:50;;;;;;;5.87;4.17;;;12.90;55.00;;;;;;5082278;28;20221;-82
2022/04/19 08:13:16;;;;;;;5.83;5.23;;;13.10;53.40;;;;;;5098818;28;20196;-82
2022/04/19 08:15:42;;;;;;;7.80;4.63;;;13.30;55.00;;;;;;5101863;28;20194;-82
2022/04/19 08:18:11;;;;;;;7.77;4.80;;;13.20;53.60;;;;;;5098482;28;20204;-81
2022/04/19 08:20:37;;;;;;;7.00;4.87;;;13.50;53.30;;;;;;5093533;28;20226;-81
2022/04/19 08:23:03;;;;;;;8.77;4.80;;;13.70;51.90;;;;;;5098411;28;20202;-80
2022/04/19 08:25:29;;;;;;;5.40;4.70;;;13.90;49.90;;;;;;5094724;28;20224;-80
2022/04/19 08:27:55;;;;;;;4.47;4.07;;;14.20;46.70;;;;;;5074647;28;20188;-79
2022/04/19 08:30:21;;;;;;;17.17;6.37;;;14.30;47.50;;;;;;5092994;28;20192;-81
2022/04/19 08:32:47;;;;;;;5.53;4.70;;;14.50;46.00;;;;;;5096082;28;20187;-81
2022/04/19 08:35:13;;;;;;;9.00;4.70;;;14.70;45.80;;;;;;5095234;28;20213;-81
2022/04/19 08:37:39;;;;;;;11.83;7.33;;;14.80;45.30;;;;;;5099120;28;20186;-81
2022/04/19 08:40:09;;;;;;;13.43;5.73;;;14.90;44.90;;;;;;5098804;28;20203;-80
2022/04/19 08:42:37;;;;;;;7.90;5.33;;;15.10;42.40;;;;;;5099128;28;20221;-81
2022/04/19 08:45:04;;;;;;;13.07;5.43;;;15.20;42.50;;;;;;5095227;28;20240;-81
2022/04/19 08:47:32;;;;;;;8.27;4.83;;;15.20;43.20;;;;;;5097912;28;20201;-81
2022/04/19 08:50:01;;;;;;;6.50;4.90;;;15.50;43.20;;;;;;5097444;28;20280;-81
2022/04/19 08:52:27;;;;;;;6.30;4.27;;;15.50;42.30;;;;;;5079053;28;20298;-81
2022/04/19 08:57:39;;;;;;;7.83;4.80;;;15.80;42.60;;;;;;5098833;28;20208;-81
2022/04/19 09:00:06;;;;;;;5.20;4.43;;;16.00;41.80;;;;;;5100519;28;20199;-81
2022/04/19 09:02:34;;;;;;;4.87;4.47;;;16.10;40.30;;;;;;5098312;28;20365;-82
2022/04/19 09:05:17;;;;;;;6.03;4.53;;;16.20;39.50;;;;;;5093309;28;20219;-81
2022/04/19 09:07:44;;;;;;;6.20;5.23;;;16.30;39.70;;;;;;5097950;28;20190;-81
2022/04/19 09:10:15;;;;;;;5.43;4.97;;;16.40;39.60;;;;;;5093826;28;20194;-80
2022/04/19 09:13:00;;;;;;;5.53;4.77;;;16.40;40.40;;;;;;5095156;28;20741;-81
2022/04/19 09:15:40;;;;;;;5.97;5.37;;;16.70;39.40;;;;;;5093052;28;20665;-80
2022/04/19 09:18:13;;;;;;;7.10;5.57;;;16.80;37.70;;;;;;5076922;28;20290;-80
2022/04/19 09:20:39;;;;;;;5.97;5.37;;;16.70;38.30;;;;;;5080444;28;20218;-81
2022/04/19 09:23:10;;;;;;;7.33;5.17;;;16.80;38.10;;;;;;5080738;28;20420;-80
2022/04/19 09:25:37;;;;;;;7.37;5.20;;;16.90;37.40;;;;;;5095503;28;20312;-80
2022/04/19 09:28:16;;;;;;;5.50;5.10;;;17.00;37.20;;;;;;5098808;28;20190;-80
2022/04/19 09:30:42;;;;;;;5.70;5.10;;;17.20;37.30;;;;;;5098102;28;20327;-80
2022/04/19 09:33:08;;;;;;;6.47;5.40;;;17.30;37.50;;;;;;5099072;28;20756;-81
2022/04/19 09:35:38;;;;;;;6.00;4.80;;;17.30;38.50;;;;;;5097236;28;20218;-82
2022/04/19 09:38:05;;;;;;;5.23;4.70;;;17.60;36.80;;;;;;5101506;28;20183;-81
2022/04/19 09:40:39;;;;;;;5.40;4.90;;;17.80;36.00;;;;;;5099184;28;20191;-80
2022/04/19 09:43:15;;;;;;;5.53;4.90;;;17.90;35.10;;;;;;5090940;28;20197;-81
2022/04/19 09:45:51;;;;;;;5.70;4.70;;;18.00;34.20;;;;;;5095697;28;20206;-81
2022/04/19 09:48:19;;;;;;;7.40;4.80;;;18.10;33.90;;;;;;5096475;28;20172;-79
2022/04/19 09:50:54;;;;;;;6.83;4.83;;;18.20;34.70;;;;;;5114867;28;20195;-77
2022/04/19 09:53:23;;;;;;;5.63;4.77;;;18.30;33.90;;;;;;5105512;28;20197;-81
2022/04/19 09:55:50;;;;;;;5.40;4.23;;;18.40;33.60;;;;;;5097365;28;20199;-79
2022/04/19 09:58:16;;;;;;;6.03;4.40;;;18.60;33.60;;;;;;5080208;28;20188;-80
2022/04/19 10:00:44;;;;;;;6.70;4.67;;;18.90;33.30;;;;;;5080698;28;20239;-81
2022/04/19 10:08:44;;;;;;;5.63;4.72;;;19.10;32.90;;;;;;5094339;28;20210;-81
2022/04/19 10:11:10;;;;;;;4.80;4.35;;;19.40;33.40;;;;;;5096235;28;20203;-80
2022/04/19 10:13:39;;;;;;;4.90;4.15;;;19.60;29.60;;;;;;5096248;28;20248;-81
2022/04/19 10:16:15;;;;;;;5.50;5.00;;;19.60;28.10;;;;;;5096253;28;20504;-80
2022/04/19 10:18:44;;;;;;;5.65;4.88;;;19.70;29.80;;;;;;5077629;28;20200;-81
2022/04/19 10:21:24;;;;;;;5.70;5.13;;;19.60;30.20;;;;;;5091918;28;20227;-81
2022/04/19 10:23:50;;;;;;;8.32;5.15;;;19.40;31.50;;;;;;5094811;28;20183;-81
2022/04/19 10:26:23;;;;;;;5.63;4.40;;;19.60;31.00;;;;;;5091997;28;20206;-81
2022/04/19 10:28:54;;;;;;;4.90;4.45;;;19.80;29.60;;;;;;5092323;28;20183;-81
2022/04/19 10:31:31;;;;;;;5.93;5.40;;;20.10;29.40;;;;;;5095975;28;20202;-80
2022/04/19 10:34:04;;;;;;;6.75;5.20;;;20.10;28.90;;;;;;5095606;28;20316;-80
2022/04/19 10:36:40;;;;;;;6.40;5.47;;;20.40;27.90;;;;;;5096052;28;20292;-79
2022/04/19 10:39:12;;;;;;;7.30;5.65;;;20.80;28.30;;;;;;5095937;28;20186;-81
2022/04/19 10:42:02;;;;;;;6.90;5.20;;;20.80;28.20;;;;;;5097517;28;20258;-81
2022/04/19 10:44:48;;;;;;;6.88;5.63;;;21.00;28.20;;;;;;5088767;28;20193;-81
2022/04/19 10:47:23;;;;;;;5.97;5.30;;;21.10;28.20;;;;;;5102557;28;20175;-81
2022/04/19 10:50:07;;;;;;;6.25;5.65;;;21.30;29.40;;;;;;5104401;28;20202;-80
2022/04/19 10:52:44;;;;;;;6.68;6.07;;;21.50;27.40;;;;;;5098229;28;20457;-80
2022/04/19 10:55:18;;;;;;;4.85;4.28;;;21.40;27.00;;;;;;5086418;28;20181;-78
2022/04/19 11:00:34;;;;;;;6.88;4.05;;;21.10;26.60;;;;;;5099603;28;20240;-81
2022/04/19 11:03:07;;;;;;;4.10;3.80;;;21.30;26.40;;;;;;5104286;28;20180;-79
2022/04/19 11:05:46;;;;;;;4.28;3.90;;;21.60;26.40;;;;;;5104782;28;20227;-82
2022/04/19 11:08:24;;;;;;;5.93;4.60;;;21.80;25.80;;;;;;5101132;28;20173;-82
2022/04/19 11:10:51;;;;;;;6.55;4.82;;;22.00;25.80;;;;;;5095223;28;20198;-80
2022/04/19 11:13:19;;;;;;;5.05;4.65;;;22.20;26.40;;;;;;5094997;28;20256;-81
2022/04/19 11:15:59;;;;;;;6.35;4.57;;;22.10;25.50;;;;;;5079269;28;20211;-79
2022/04/19 11:18:26;;;;;;;4.70;4.10;;;22.20;25.10;;;;;;5093403;28;20200;-80
2022/04/19 11:20:57;;;;;;;6.43;4.63;;;22.30;25.30;;;;;;5098507;28;20235;-81
2022/04/19 11:23:24;;;;;;;5.13;4.15;;;22.20;25.00;;;;;;5096133;28;20182;-81
2022/04/19 11:25:52;;;;;;;10.98;4.70;;;22.30;25.30;;;;;;5073815;28;20214;-80
2022/04/19 11:28:21;;;;;;;9.90;5.50;;;22.40;25.40;;;;;;5098511;28;20619;-82
2022/04/19 11:30:50;;;;;;;22.65;7.35;;;22.70;24.00;;;;;;5094990;28;20214;-82
2022/04/19 11:33:31;;;;;;;7.85;4.75;;;22.70;24.00;;;;;;5100379;28;20177;-81
2022/04/19 11:36:00;;;;;;;5.40;3.95;;;22.60;24.00;;;;;;5095739;28;20224;-81
2022/04/19 11:38:28;;;;;;;4.65;3.80;;;22.40;23.70;;;;;;5097450;28;20215;-81
2022/04/19 11:49:09;;;;;;;4.38;3.42;;;23.00;24.20;;;;;;5097102;28;20200;-81
2022/04/19 11:51:36;;;;;;;4.97;4.00;;;23.20;24.30;;;;;;5100072;28;20899;-82
2022/04/19 11:54:05;;;;;;;5.22;4.00;;;23.50;24.20;;;;;;5089617;28;20175;-82
2022/04/19 11:56:32;;;;;;;6.00;4.22;;;23.50;24.00;;;;;;5096565;28;20526;-82
2022/04/19 11:59:02;;;;;;;4.70;4.18;;;23.20;24.00;;;;;;5102982;28;20360;-82
2022/04/19 12:01:28;;;;;;;4.55;4.18;;;23.40;24.30;;;;;;5101439;28;20255;-82
2022/04/19 12:03:55;;;;;;;7.22;3.90;;;23.70;24.30;;;;;;5090737;28;20519;-82
2022/04/19 12:06:21;;;;;;;7.25;3.70;;;23.60;23.30;;;;;;5091188;28;20207;-82
2022/04/19 12:08:53;;;;;;;4.10;3.80;;;23.50;23.10;;;;;;5088639;28;20183;-82
2022/04/19 12:11:26;;;;;;;4.32;3.80;;;23.40;22.80;;;;;;5091203;28;20206;-82
2022/04/19 12:13:53;;;;;;;4.07;3.67;;;23.50;22.90;;;;;;5090022;28;20206;-82
2022/04/19 12:16:39;;;;;;;4.63;3.35;;;23.50;23.00;;;;;;5087869;28;20184;-82
2022/04/19 12:19:10;;;;;;;4.75;3.95;;;23.30;23.30;;;;;;5088301;28;20174;-82
2022/04/19 12:21:41;;;;;;;4.53;3.65;;;23.80;23.00;;;;;;5093566;28;20219;-82
2022/04/19 12:24:09;;;;;;;5.20;3.78;;;24.20;22.50;;;;;;5090254;28;20188;-82
2022/04/19 12:26:35;;;;;;;4.28;3.88;;;23.90;21.80;;;;;;5093723;28;20238;-82
2022/04/19 12:29:19;;;;;;;3.72;3.42;;;23.60;21.80;;;;;;5093716;28;20189;-82
2022/04/19 12:31:47;;;;;;;4.40;4.10;;;23.30;22.10;;;;;;5090266;28;20232;-82
2022/04/19 12:34:15;;;;;;;4.57;3.70;;;23.50;22.40;;;;;;5086795;28;20654;-82
2022/04/19 12:36:41;;;;;;;4.28;3.88;;;23.60;22.80;;;;;;5102612;28;20197;-81
2022/04/19 12:39:07;;;;;;;7.88;3.88;;;23.90;23.00;;;;;;5103902;28;20182;-83
2022/04/19 12:41:43;;;;;;;4.25;3.95;;;24.00;23.10;;;;;;5098064;28;20225;-82
2022/04/19 12:44:13;;;;;;;4.30;3.90;;;24.50;22.40;;;;;;5093674;28;20187;-83
2022/04/19 12:46:43;;;;;;;8.30;4.63;;;24.50;21.90;;;;;;5091219;28;20221;-83
2022/04/19 12:49:47;;;;;;;5.05;4.05;;;24.30;21.90;;;;;;5087837;28;20183;-83
2022/04/19 12:52:14;;;;;;;5.25;4.68;;;23.90;20.60;;;;;;5070517;28;20306;-83
2022/04/19 12:54:44;;;;;;;5.57;5.07;;;24.00;21.70;;;;;;5087579;28;20202;-83
2022/04/19 12:57:17;;;;;;;4.13;3.80;;;24.40;21.30;;;;;;5098405;28;20187;-83
2022/04/19 12:59:44;;;;;;;4.75;3.80;;;25.20;20.20;;;;;;5087793;28;20237;-83
2022/04/19 13:02:13;;;;;;;5.60;4.13;;;25.60;19.80;;;;;;5090527;28;20253;-83
2022/04/19 13:04:39;;;;;;;4.97;4.13;;;25.60;19.60;;;;;;5087171;28;20179;-83
2022/04/19 13:12:34;;;;;;;4.47;4.15;;;25.00;20.50;;;;;;5096128;28;20260;-84
2022/04/19 13:15:04;;;;;;;8.45;4.72;;;25.50;21.40;;;;;;5092649;28;20182;-83
2022/04/19 13:17:39;;;;;;;23.75;6.57;;;25.80;20.20;;;;;;5084782;28;20179;-83
2022/04/19 13:20:07;;;;;;;33.22;7.45;;;26.20;20.80;;;;;;5089692;28;20184;-83
2022/04/19 13:22:33;;;;;;;10.68;6.13;;;26.70;20.70;;;;;;5095773;28;20292;-83
2022/04/19 13:24:59;;;;;;;7.65;5.43;;;27.20;21.10;;;;;;5092181;28;20207;-84
2022/04/19 13:27:26;;;;;;;6.88;6.18;;;26.80;20.90;;;;;;5074562;28;20187;-83
2022/04/19 13:29:53;;;;;;;6.18;5.65;;;26.40;20.90;;;;;;5089805;28;20192;-84
2022/04/19 13:32:20;;;;;;;6.28;5.68;;;26.20;21.20;;;;;;5088249;28;20847;-83
2022/04/19 13:34:46;;;;;;;10.07;5.68;;;26.70;20.80;;;;;;5093708;28;20176;-86
2022/04/19 13:37:13;;;;;;;7.05;6.38;;;26.90;20.40;;;;;;5089935;28;20180;-83
2022/04/19 13:39:39;;;;;;;19.55;6.85;;;26.90;19.50;;;;;;5089435;28;20188;-85